• Join FlightAware (Why Join?)
  • Login
  • US Flag 
03:20AM EDT


 

Airport Tracker/Info


-or-


 

Live Flight TrackerFlight Track Log ✈ SWA2854 ✈ 28-Sep-2013 ✈ KDEN - KATL

Flight Track Log - Related Links

Times and Time Zones

All times are in EDT time to prevent confusion due to time zone crossing. See the SWA2854 flight status page for this flight to view local times or setup timezone preferences in your user account.

Time Position Orientation Groundspeed Altitude Reporting Facility
EDT Latitude Longitude Course Direction KTS MPH feet Rate Location/Type
08:10PM 39.9167 -104.6667 123° Southeast 177 204 7,000  Level Denver TRACON
08:11PM 39.8833 -104.6000 123° Southeast 244 281 9,000 2,400 Climbing Denver TRACON
08:12PM 39.8500 -104.5000 113° Southeast 317 365 11,900 3,120 Climbing Denver TRACON
08:13PM 39.7961 -104.3558 116° Southeast 361 415 16,200 3,300 Climbing Denver Center
08:14PM 39.7483 -104.2172 114° Southeast 392 451 19,600 3,120 Climbing Denver Center
08:15PM 39.7011 -104.0808 114° Southeast 413 475 22,700 2,820 Climbing Denver Center
08:16PM 39.6475 -103.9331 115° Southeast 426 490 25,500 2,520 Climbing Denver Center
08:17PM 39.5886 -103.7903 118° Southeast 447 514 27,900 2,400 Climbing Denver Center
08:18PM 39.5500 -103.6381 108° East 441 507 30,500 2,220 Climbing Denver Center
08:19PM 39.5094 -103.4828 109° East 455 524 32,600 1,800 Climbing Denver Center
08:20PM 39.4678 -103.3261 109° East 460 529 34,300 1,380 Climbing Denver Center
08:21PM 39.4261 -103.1664 109° East 467 537 35,500 1,320 Climbing Denver Center
08:22PM 39.3811 -103.0022 109° East 479 551 37,100 1,560 Climbing Denver Center
08:23PM 39.3289 -102.8050 109° East 485 558 38,800 1,260 Climbing Denver Center
08:24PM 39.2883 -102.6556 109° East 488 562 39,700 840 Climbing Denver Center
08:25PM 39.2369 -102.4689 110° East 494 568 40,600 600 Climbing Denver Center
08:26PM 39.1928 -102.3056 109° East 502 578 41,000 180 Climbing Denver Center
08:27PM 39.1414 -102.1197 110° East 495 570 41,000  Level Denver Center
08:28PM 39.0969 -101.9608 110° East 493 567 41,000  Level Denver Center
08:29PM 39.0522 -101.8042 110° East 489 563 41,000  Level Denver Center
08:30PM 39.0000 -101.6211 110° East 489 563 41,000  Level Denver Center
08:31PM 38.9542 -101.4644 111° Southeast 488 562 41,000  Level Denver Center
08:32PM 38.8925 -101.2886 114° Southeast 482 555 41,000  Level Denver Center
08:33PM 38.8383 -101.1392 115° Southeast 482 555 41,000  Level Denver Center
08:34PM 38.7842 -100.9878 115° Southeast 486 559 41,000  Level Denver Center
08:36PM 38.7206 -100.8119 115° Southeast 486 559 41,000  Level Denver Center
08:37PM 38.6750 -100.6844 115° Southeast 490 564 41,000  Level Denver Center
08:38PM 38.6094 -100.5081 115° Southeast 491 565 41,000  Level Denver Center
08:38PM 38.5622 -100.3808 115° Southeast 490 564 41,000  Level Kansas City Center
08:39PM 38.5069 -100.2300 115° Southeast 489 563 41,000  Level Kansas City Center
08:40PM 38.4414 -100.0550 116° Southeast 488 562 41,000  Level Kansas City Center
08:41PM 38.3856 -99.9089 116° Southeast 483 556 41,000  Level Kansas City Center
08:42PM 38.3306 -99.7611 115° Southeast 481 554 41,000  Level Kansas City Center
08:43PM 38.2656 -99.5908 116° Southeast 478 550 41,000  Level Kansas City Center
08:44PM 38.2094 -99.4450 116° Southeast 480 552 41,000  Level Kansas City Center
08:45PM 38.1522 -99.2936 116° Southeast 479 551 41,000  Level Kansas City Center
08:46PM 38.0939 -99.1414 116° Southeast 478 550 41,000  Level Kansas City Center
08:47PM 38.0358 -98.9908 116° Southeast 477 549 41,000  Level Kansas City Center
08:48PM 37.9778 -98.8386 116° Southeast 480 552 41,000  Level Kansas City Center
08:49PM 37.9194 -98.6878 116° Southeast 479 551 41,000  Level Kansas City Center
08:51PM 37.8617 -98.5367 116° Southeast 479 551 41,000  Level Kansas City Center
08:52PM 37.7900 -98.3564 117° Southeast 482 555 41,000  Level Kansas City Center
08:53PM 37.7308 -98.2078 117° Southeast 480 552 41,000  Level Kansas City Center
08:54PM 37.6722 -98.0572 116° Southeast 480 552 41,000  Level Kansas City Center
08:55PM 37.6128 -97.9086 117° Southeast 482 555 41,000  Level Kansas City Center
08:56PM 37.5525 -97.7592 117° Southeast 483 556 41,000  Level Kansas City Center
08:57PM 37.4925 -97.6094 117° Southeast 483 556 41,000  Level Kansas City Center
08:58PM 37.4314 -97.4600 117° Southeast 482 555 41,000  Level Kansas City Center
08:59PM 37.3717 -97.3106 117° Southeast 481 554 41,000  Level Kansas City Center
09:00PM 37.2967 -97.1350 118° Southeast 479 551 41,000  Level Kansas City Center
09:01PM 37.2361 -96.9853 117° Southeast 482 555 41,000  Level Kansas City Center
09:02PM 37.1753 -96.8361 117° Southeast 483 556 41,000 -60 Level Kansas City Center
09:03PM 37.1106 -96.6803 117° Southeast 481 554 40,900  Descending Kansas City Center
09:04PM 37.0489 -96.5306 117° Southeast 482 555 41,000  Climbing Kansas City Center
09:05PM 36.9869 -96.3817 117° Southeast 482 555 41,000  Level Kansas City Center
09:06PM 36.9244 -96.2331 118° Southeast 483 556 41,000  Level Kansas City Center
09:07PM 36.8619 -96.0839 118° Southeast 483 556 41,000  Level Kansas City Center
09:08PM 36.8097 -95.9311 113° Southeast 479 551 41,000  Level Kansas City Center
09:09PM 36.7672 -95.7681 108° East 490 564 41,000  Level Kansas City Center
09:10PM 36.7233 -95.6072 109° East 487 560 41,000  Level Kansas City Center
09:11PM 36.6803 -95.4464 108° East 484 557 41,000  Level Kansas City Center
09:12PM 36.6353 -95.2839 109° East 486 559 41,000  Level Kansas City Center
09:13PM 36.5892 -95.1242 110° East 486 559 41,000  Level Kansas City Center
09:14PM 36.5439 -94.9617 109° East 489 563 41,000  Level Kansas City Center
09:15PM 36.4981 -94.8044 110° East 484 557 41,000  Level Kansas City Center
09:16PM 36.4525 -94.6450 110° East 485 558 41,000  Level Kansas City Center
09:17PM 36.4067 -94.4847 110° East 488 562 41,000  Level Kansas City Center
09:18PM 36.3603 -94.3267 110° East 488 562 41,000  Level Kansas City Center
09:19PM 36.3350 -94.2328 108° East 485 558 41,000  Level Memphis Center
09:20PM 36.2908 -94.0761 109° East 482 555 41,000  Level Memphis Center
09:21PM 36.2450 -93.9206 110° East 481 554 41,000  Level Memphis Center
09:22PM 36.2003 -93.7653 110° East 479 551 41,000  Level Memphis Center
09:23PM 36.1503 -93.5967 110° East 478 550 41,000  Level Memphis Center
09:24PM 36.1044 -93.4417 110° East 479 551 41,000  Level Memphis Center
09:25PM 36.0583 -93.2869 110° East 478 550 41,000  Level Memphis Center
09:26PM 36.0108 -93.1283 110° East 486 559 41,000  Level Memphis Center
09:27PM 35.9642 -92.9708 110° East 488 562 41,000  Level Memphis Center
09:28PM 35.9158 -92.8117 111° Southeast 491 565 41,000  Level Memphis Center
09:29PM 35.8681 -92.6533 110° East 491 565 41,000  Level Memphis Center
09:30PM 35.8197 -92.4967 111° Southeast 487 560 41,000  Level Memphis Center
09:31PM 35.7728 -92.3419 110° East 480 552 41,000  Level Memphis Center
09:32PM 35.7244 -92.1853 111° Southeast 486 559 41,000  Level Memphis Center
09:33PM 35.6761 -92.0314 111° Southeast 484 557 41,000  Level Memphis Center
09:34PM 35.6303 -91.8781 110° East 479 551 41,000  Level Memphis Center
09:35PM 35.5822 -91.7253 111° Southeast 479 551 41,000  Level Memphis Center
09:36PM 35.5333 -91.5728 111° Southeast 479 551 41,000  Level Memphis Center
09:37PM 35.4750 -91.3903 111° Southeast 479 551 41,000  Level Memphis Center
09:38PM 35.4256 -91.2361 111° Southeast 482 555 41,000  Level Memphis Center
09:39PM 35.3767 -91.0814 111° Southeast 482 555 41,000  Level Memphis Center
09:40PM 35.3481 -90.9172 102° East 489 563 41,000  Level Memphis Center
09:41PM 35.3158 -90.7553 104° East 486 559 41,000  Level Memphis Center
09:42PM 35.2828 -90.5928 104° East 486 559 41,000  Level Memphis Center
09:43PM 35.2519 -90.4314 103° East 484 557 41,000  Level Memphis Center
09:44PM 35.2197 -90.2700 104° East 484 557 41,000  Level Memphis Center
09:45PM 35.1875 -90.1097 104° East 481 554 41,000  Level Memphis Center
09:46PM 35.1556 -89.9500 104° East 478 550 41,000  Level Memphis Center
09:47PM 35.1236 -89.7906 104° East 476 548 41,000  Level Memphis Center
09:48PM 35.0961 -89.6561 104° East 478 550 41,000  Level Memphis Center
09:49PM 35.0628 -89.4969 104° East 476 548 41,000  Level Memphis Center
09:50PM 35.0300 -89.3394 104° East 472 543 41,000  Level Memphis Center
09:51PM 34.9969 -89.1825 104° East 472 543 41,000  Level Memphis Center
09:52PM 34.9647 -89.0269 104° East 469 540 41,000  Level Memphis Center
09:53PM 34.9306 -88.8725 105° East 468 539 41,000  Level Memphis Center
09:54PM 34.8981 -88.7161 104° East 471 542 41,000  Level Memphis Center
09:55PM 34.8644 -88.5617 105° East 469 540 41,000 -120 Level Memphis Center
09:56PM 34.8303 -88.4053 105° East 467 537 40,800 -600 Descending Memphis Center
09:57PM 34.7978 -88.2511 104° East 470 541 39,800 -960 Descending Memphis Center
09:58PM 34.7656 -88.0992 104° East 466 536 38,900 -960 Descending Memphis Center
09:59PM 34.7311 -87.9444 105° East 469 540 37,900 -960 Descending Memphis Center
10:00PM 34.6975 -87.7889 105° East 471 542 37,000 -960 Descending Memphis Center
10:01PM 34.6642 -87.6331 105° East 472 543 36,000 -1,680 Descending Memphis Center
10:02PM 34.6283 -87.4789 106° East 474 545 33,600 -1,800 Descending Memphis Center
10:03PM 34.6056 -87.3472 102° East 474 545 33,000 -360 Descending Atlanta Center
10:04PM 34.5761 -87.1997 104° East 468 539 33,000  Level Atlanta Center
10:05PM 34.5483 -87.0575 103° East 448 516 33,000  Level Atlanta Center
10:06PM 34.5225 -86.9128 102° East 438 504 33,000  Level Atlanta Center
10:07PM 34.4944 -86.7708 103° East 433 498 33,000  Level Atlanta Center
10:08PM 34.4642 -86.6289 104° East 433 498 33,000  Level Atlanta Center
10:09PM 34.4378 -86.4844 102° East 439 505 33,000  Level Atlanta Center
10:10PM 34.4094 -86.3400 103° East 439 505 33,000  Level Atlanta Center
10:11PM 34.3828 -86.1983 103° East 439 505 33,000  Level Atlanta Center
10:12PM 34.3539 -86.0542 104° East 439 505 33,000 -600 Level Atlanta Center
10:13PM 34.3247 -85.9128 104° East 439 505 31,800 -2,040 Descending Atlanta Center
10:14PM 34.2975 -85.7739 103° East 433 498 29,000 -3,000 Descending Atlanta Center
10:15PM 34.2681 -85.6325 104° East 433 498 25,800 -2,940 Descending Atlanta Center
10:16PM 34.2428 -85.4886 102° East 433 498 23,200 -2,580 Descending Atlanta Center
10:17PM 34.2131 -85.3500 105° East 426 490 20,700 -2,520 Descending Atlanta Center
10:19PM 34.1500 -85.1000 107° East 390 449 15,700 -2,460 Descending Atlanta TRACON
10:20PM 34.0700 -85.0169 139° Southeast 370 426 13,400 -2,160 Descending Atlanta Center
10:21PM 33.9872 -84.9508 146° Southeast 363 418 11,500 -1,680 Descending Atlanta Center
10:22PM 33.9125 -84.8850 144° Southeast 345 397 10,100 -1,500 Descending Atlanta Center
10:23PM 33.8461 -84.8242 143° Southeast 313 360 8,500 -1,740 Descending Atlanta Center
10:24PM 33.7839 -84.7661 142° Southeast 296 341 6,700 -1,740 Descending Atlanta Center
10:25PM 33.7236 -84.7106 143° Southeast 281 323 5,100 -1,260 Descending Atlanta Center
10:26PM 33.6758 -84.6553 136° Southeast 253 291 4,200 -780 Descending Atlanta Center
10:27PM 33.6511 -84.6053 121° Southeast 216 249 3,600 -780 Descending Atlanta Center
10:28PM 33.6500 -84.5333 91° East 128 147 2,600 -780 Descending Atlanta TRACON
10:29PM 33.6500 -84.5000 90° East 112 129 2,000 -600 Descending Atlanta TRACON
10:30PM 33.6500 -84.4667 90° East 116 133 1,500 -600 Descending Atlanta TRACON
10:32PM 33.6367 -84.4279 North  Level Estimated
10:39PM 33.6367 -84.4279 North  Level Estimated